Time;durP1;ratioP1;P1;durP2;ratioP2;P2;SDS_P1;SDS_P2;PMS_P1;PMS_P2;Temp;Humidity;BMP_temperature;BMP_pressure;BME280_temperature;BME280_humidity;BME280_pressure;Samples;Min_cycle;Max_cycle;Signal;HPM_P1;HPM_P2
2021/01/26 00:01:49;;;;;;;5.22;4.20;;;19.40;43.00;;;;;;5201327;28;20033;-62
2021/01/26 00:04:19;;;;;;;6.07;4.10;;;19.40;43.20;;;;;;5202738;28;20037;-62
2021/01/26 00:06:50;;;;;;;6.10;4.60;;;19.40;43.50;;;;;;5202189;28;20425;-62
2021/01/26 00:09:20;;;;;;;8.88;4.40;;;19.40;43.80;;;;;;5202683;28;20033;-62
2021/01/26 00:11:51;;;;;;;6.88;5.13;;;19.40;43.90;;;;;;5202763;28;20180;-62
2021/01/26 00:14:21;;;;;;;6.63;4.00;;;19.30;44.00;;;;;;5201180;28;20079;-62
2021/01/26 00:16:52;;;;;;;6.53;4.45;;;19.40;44.20;;;;;;5199428;28;20211;-62
2021/01/26 00:19:22;;;;;;;5.00;4.45;;;19.30;44.20;;;;;;5202976;28;20455;-61
2021/01/26 00:21:53;;;;;;;5.50;4.00;;;19.30;44.10;;;;;;5202743;28;20037;-62
2021/01/26 00:24:23;;;;;;;6.18;4.13;;;19.30;44.20;;;;;;5203499;28;20484;-61
2021/01/26 00:26:54;;;;;;;5.75;4.15;;;19.30;44.20;;;;;;5202298;28;20045;-62
2021/01/26 00:29:24;;;;;;;5.43;4.32;;;19.30;44.20;;;;;;5201394;28;20029;-62
2021/01/26 00:31:55;;;;;;;6.35;4.18;;;19.20;44.20;;;;;;5201399;28;20030;-61
2021/01/26 00:34:25;;;;;;;6.22;4.80;;;19.20;44.20;;;;;;5203190;28;20025;-59
2021/01/26 00:36:56;;;;;;;6.20;4.63;;;19.20;44.90;;;;;;5202347;28;20029;-61
2021/01/26 00:39:26;;;;;;;7.30;4.75;;;19.20;44.30;;;;;;5201116;28;20025;-61
2021/01/26 00:41:57;;;;;;;4.93;4.32;;;19.20;44.30;;;;;;5201653;28;20064;-60
2021/01/26 00:44:27;;;;;;;7.18;4.15;;;19.20;44.30;;;;;;5201565;28;20099;-61
2021/01/26 00:46:58;;;;;;;5.57;4.57;;;19.20;44.30;;;;;;5201585;28;20498;-61
2021/01/26 00:49:28;;;;;;;5.15;4.65;;;19.10;44.40;;;;;;5203067;28;20120;-61
2021/01/26 00:51:59;;;;;;;6.55;4.60;;;19.10;44.40;;;;;;5201165;28;20125;-62
2021/01/26 00:54:29;;;;;;;5.47;4.43;;;19.10;44.20;;;;;;5202438;28;20030;-61
2021/01/26 00:57:00;;;;;;;4.85;4.32;;;19.20;44.30;;;;;;5202109;28;20037;-59
2021/01/26 00:59:30;;;;;;;6.95;4.97;;;19.20;44.30;;;;;;5206096;28;20068;-62
2021/01/26 01:02:01;;;;;;;7.43;4.40;;;19.20;44.20;;;;;;5205311;28;20498;-59
2021/01/26 01:04:31;;;;;;;8.27;4.72;;;19.20;44.30;;;;;;5188673;28;20030;-60
2021/01/26 01:07:02;;;;;;;6.22;3.97;;;19.10;44.10;;;;;;5206478;28;20056;-60
2021/01/26 01:09:32;;;;;;;5.20;4.35;;;19.20;44.10;;;;;;5204542;28;20030;-60
2021/01/26 01:12:03;;;;;;;6.82;4.43;;;19.10;43.90;;;;;;5204975;28;20038;-58
2021/01/26 01:14:34;;;;;;;4.88;4.22;;;19.10;43.90;;;;;;5204543;28;20099;-60
2021/01/26 01:17:04;;;;;;;7.32;4.43;;;19.20;43.80;;;;;;5187401;28;20037;-61
2021/01/26 01:19:35;;;;;;;6.75;4.40;;;19.10;43.70;;;;;;5205765;28;20204;-60
2021/01/26 01:22:05;;;;;;;8.48;4.55;;;19.10;43.60;;;;;;5204715;28;20029;-59
2021/01/26 01:24:36;;;;;;;4.90;4.40;;;19.10;43.60;;;;;;5204615;28;20037;-61
2021/01/26 01:27:06;;;;;;;5.32;4.63;;;19.10;43.50;;;;;;5205548;28;20044;-61
2021/01/26 01:29:37;;;;;;;5.07;4.50;;;19.10;43.30;;;;;;5206290;28;20036;-60
2021/01/26 01:32:07;;;;;;;5.28;4.28;;;19.20;43.20;;;;;;5204286;28;20034;-61
2021/01/26 01:34:38;;;;;;;6.10;4.60;;;19.20;43.10;;;;;;5206030;28;20478;-59
2021/01/26 01:37:09;;;;;;;7.32;4.50;;;19.10;43.20;;;;;;5205688;28;20399;-61
2021/01/26 01:39:39;;;;;;;5.43;4.68;;;19.10;43.30;;;;;;5205961;28;20032;-60
2021/01/26 01:42:10;;;;;;;5.57;4.30;;;19.10;43.30;;;;;;5203943;28;20036;-60
2021/01/26 01:44:40;;;;;;;6.28;4.50;;;19.10;43.20;;;;;;5204378;28;20390;-60
2021/01/26 01:47:19;;;;;;;6.53;4.80;;;19.10;43.20;;;;;;5204619;28;20034;-61
2021/01/26 01:49:49;;;;;;;6.57;4.65;;;19.10;43.80;;;;;;5204425;28;20025;-62
2021/01/26 01:52:24;;;;;;;5.28;4.07;;;19.10;43.20;;;;;;5203399;28;20046;-62
2021/01/26 01:55:00;;;;;;;5.17;4.20;;;19.10;43.20;;;;;;5204418;28;20033;-60
2021/01/26 01:57:34;;;;;;;5.47;4.22;;;19.10;43.00;;;;;;5101749;29;20364;-60
2021/01/26 02:00:09;;;;;;;5.00;4.50;;;19.10;42.80;;;;;;5098602;28;20040;-63
2021/01/26 02:02:41;;;;;;;5.28;4.30;;;19.10;42.80;;;;;;5100792;29;20396;-61
2021/01/26 02:05:13;;;;;;;6.03;4.30;;;19.10;42.80;;;;;;5099704;28;20036;-61
2021/01/26 02:07:43;;;;;;;5.22;4.43;;;19.10;42.70;;;;;;5100776;29;20070;-60
2021/01/26 02:10:14;;;;;;;7.20;4.07;;;19.10;42.70;;;;;;5142675;23;20073;-74
2021/01/26 02:12:44;;;;;;;7.85;4.07;;;19.10;42.90;;;;;;5182300;28;20037;-75
2021/01/26 02:15:15;;;;;;;5.30;3.80;;;19.10;42.90;;;;;;5182972;28;20021;-76
2021/01/26 02:18:10;;;;;;;6.25;4.35;;;19.10;42.90;;;;;;5184726;28;20431;-75
2021/01/26 02:21:14;;;;;;;8.30;4.50;;;19.10;42.80;;;;;;5215036;28;20041;-76
2021/01/26 02:24:23;;;;;;;6.25;4.32;;;19.00;43.10;;;;;;5166159;28;20032;-75
2021/01/26 02:27:51;;;;;;;6.13;4.05;;;19.00;43.10;;;;;;5182696;28;20088;-75
2021/01/26 02:30:27;;;;;;;5.05;4.32;;;19.00;43.20;;;;;;5135546;28;20030;-75
2021/01/26 02:33:21;;;;;;;5.13;4.40;;;19.00;43.10;;;;;;5132382;28;20027;-75
2021/01/26 02:36:09;;;;;;;7.38;4.40;;;19.00;43.10;;;;;;5175094;28;20041;-75
2021/01/26 02:38:48;;;;;;;5.32;4.32;;;19.00;43.00;;;;;;5170066;28;20806;-75
2021/01/26 02:41:43;;;;;;;8.77;4.57;;;19.00;42.90;;;;;;5195476;28;20037;-75
2021/01/26 02:44:31;;;;;;;7.53;4.93;;;19.00;42.90;;;;;;5178715;28;20023;-75
2021/01/26 02:47:17;;;;;;;5.97;4.85;;;19.00;42.80;;;;;;5190660;28;20488;-75
2021/01/26 02:49:51;;;;;;;;;;;19.00;42.80;;;;;;5184496;28;20036;-76
2021/01/26 02:52:43;;;;;;;5.32;4.57;;;19.00;42.60;;;;;;5201527;28;20372;-75
2021/01/26 02:55:34;;;;;;;4.97;4.47;;;19.00;42.60;;;;;;5174674;28;20033;-75
2021/01/26 02:58:08;;;;;;;5.35;4.32;;;19.00;42.60;;;;;;5149734;28;20026;-76
2021/01/26 03:00:39;;;;;;;4.68;4.28;;;19.00;42.60;;;;;;5191302;28;20089;-75
2021/01/26 03:03:10;;;;;;;5.53;4.20;;;19.00;42.70;;;;;;5176533;28;20053;-76
2021/01/26 03:05:44;;;;;;;6.97;4.30;;;18.90;42.80;;;;;;5152768;28;20062;-75
2021/01/26 03:08:19;;;;;;;6.22;4.40;;;18.90;42.90;;;;;;5147738;28;20026;-75
2021/01/26 03:11:13;;;;;;;7.03;4.57;;;18.90;42.90;;;;;;5170930;28;20445;-75
2021/01/26 03:13:49;;;;;;;5.00;4.13;;;18.90;43.00;;;;;;5180273;28;20069;-75
2021/01/26 03:16:19;;;;;;;;;;;18.90;42.70;;;;;;5178943;28;20030;-75
2021/01/26 03:18:59;;;;;;;4.93;4.38;;;19.00;42.80;;;;;;5199860;28;20295;-75
2021/01/26 03:21:29;;;;;;;5.25;4.20;;;19.00;42.90;;;;;;5166619;28;20468;-75
2021/01/26 03:24:08;;;;;;;5.30;4.28;;;18.90;42.90;;;;;;5181987;28;20032;-75
2021/01/26 03:26:40;;;;;;;6.38;4.38;;;18.90;43.00;;;;;;5183361;28;20112;-75
2021/01/26 03:29:10;;;;;;;5.10;4.60;;;18.90;43.00;;;;;;5177719;28;20029;-75
2021/01/26 03:31:49;;;;;;;5.45;4.10;;;18.90;42.90;;;;;;5163119;28;20034;-75
2021/01/26 03:34:20;;;;;;;7.88;4.80;;;18.90;43.00;;;;;;5185492;28;20056;-75
2021/01/26 03:36:50;;;;;;;5.05;4.50;;;18.90;42.90;;;;;;5166340;28;20516;-75
2021/01/26 03:39:21;;;;;;;7.57;4.60;;;18.90;42.90;;;;;;5168650;28;20158;-75
2021/01/26 03:41:51;;;;;;;7.22;4.78;;;18.90;42.90;;;;;;5162596;28;20030;-75
2021/01/26 03:44:22;;;;;;;10.75;5.13;;;19.00;43.00;;;;;;5169843;28;20026;-75
2021/01/26 03:47:07;;;;;;;7.20;4.63;;;19.00;42.90;;;;;;5182250;28;20042;-75
2021/01/26 03:49:52;;;;;;;6.65;4.85;;;19.00;43.00;;;;;;5177257;28;20044;-75
2021/01/26 03:52:59;;;;;;;6.82;4.80;;;18.90;42.90;;;;;;5172129;28;20030;-75
2021/01/26 03:55:30;;;;;;;;;;;18.90;42.90;;;;;;5168042;28;20034;-75
2021/01/26 03:58:07;;;;;;;5.68;4.53;;;18.90;42.90;;;;;;5200155;28;19913;-75
2021/01/26 04:00:55;;;;;;;5.20;4.35;;;18.90;42.90;;;;;;5172100;28;20026;-75
2021/01/26 04:03:47;;;;;;;6.32;4.55;;;18.90;42.90;;;;;;5179778;28;20077;-75
2021/01/26 04:06:42;;;;;;;6.18;5.25;;;18.90;43.10;;;;;;5168410;28;20599;-75
2021/01/26 04:09:14;;;;;;;5.93;4.60;;;18.90;43.10;;;;;;5153576;28;20049;-75
2021/01/26 04:12:20;;;;;;;5.90;4.68;;;18.90;43.10;;;;;;5160813;28;20030;-75
2021/01/26 04:14:51;;;;;;;5.97;4.68;;;18.90;43.10;;;;;;5166470;28;20030;-75
2021/01/26 04:17:31;;;;;;;6.80;5.07;;;18.90;43.00;;;;;;5183493;28;20041;-75
2021/01/26 04:20:11;;;;;;;6.18;5.20;;;18.90;43.10;;;;;;5147135;28;20073;-75
2021/01/26 04:22:42;;;;;;;6.80;4.40;;;18.90;43.00;;;;;;5185391;28;20373;-75
2021/01/26 04:25:25;;;;;;;6.30;4.55;;;18.90;43.00;;;;;;5168809;28;20121;-75
2021/01/26 04:27:56;;;;;;;6.40;4.32;;;18.90;43.00;;;;;;5187339;28;20026;-75
2021/01/26 04:30:26;;;;;;;6.70;4.15;;;18.90;43.10;;;;;;5168915;28;20088;-75
2021/01/26 04:33:04;;;;;;;6.00;4.57;;;18.90;43.10;;;;;;5168652;28;20488;-75
2021/01/26 04:35:35;;;;;;;5.07;3.90;;;18.90;43.70;;;;;;5216641;28;20034;-75
2021/01/26 04:38:05;;;;;;;7.25;4.13;;;18.90;43.00;;;;;;5171306;28;20022;-76
2021/01/26 04:40:36;;;;;;;9.50;4.40;;;18.90;42.90;;;;;;5174623;28;20033;-75
2021/01/26 04:43:13;;;;;;;7.10;4.72;;;18.90;42.80;;;;;;5187603;28;20054;-75
2021/01/26 04:45:47;;;;;;;5.63;4.25;;;18.90;42.80;;;;;;5203021;28;20034;-75
2021/01/26 04:48:29;;;;;;;4.72;4.10;;;18.90;42.80;;;;;;5193690;28;20022;-75
2021/01/26 04:51:16;;;;;;;4.75;4.20;;;18.90;42.70;;;;;;5185142;28;20018;-75
2021/01/26 04:53:58;;;;;;;6.20;4.05;;;18.90;42.80;;;;;;5203538;28;20022;-76
2021/01/26 04:56:44;;;;;;;4.63;4.03;;;18.90;43.20;;;;;;5189734;28;20030;-74
2021/01/26 04:59:33;;;;;;;4.47;4.07;;;18.90;42.60;;;;;;5190161;28;20097;-74
2021/01/26 05:02:16;;;;;;;6.72;4.35;;;18.90;42.70;;;;;;5170339;28;20397;-75
2021/01/26 05:04:50;;;;;;;15.85;5.03;;;18.90;42.70;;;;;;5203273;28;20042;-75
2021/01/26 05:07:33;;;;;;;5.68;4.30;;;18.90;42.70;;;;;;5181414;28;20069;-75
2021/01/26 05:10:09;;;;;;;6.45;4.60;;;18.90;42.70;;;;;;5186272;28;20030;-75
2021/01/26 05:12:46;;;;;;;5.82;4.57;;;18.90;42.70;;;;;;5166986;28;20026;-75
2021/01/26 05:15:19;;;;;;;6.82;4.63;;;18.90;42.70;;;;;;5183037;28;20034;-75
2021/01/26 05:18:04;;;;;;;14.35;4.70;;;18.90;42.60;;;;;;5165500;28;20034;-75
2021/01/26 05:20:40;;;;;;;7.10;4.32;;;18.90;42.60;;;;;;5164991;28;20076;-75
2021/01/26 05:23:14;;;;;;;16.02;4.50;;;18.90;42.60;;;;;;5149846;28;20054;-76
2021/01/26 05:25:44;;;;;;;10.32;3.78;;;19.00;42.90;;;;;;5142725;28;20420;-76
2021/01/26 05:28:17;;;;;;;13.85;3.65;;;19.10;42.90;;;;;;5157077;28;20026;-77
2021/01/26 05:30:56;;;;;;;6.05;3.00;;;19.10;42.90;;;;;;5168087;28;20037;-76
2021/01/26 05:33:26;;;;;;;5.35;3.00;;;19.10;43.60;;;;;;5185635;28;20014;-77
2021/01/26 05:35:57;;;;;;;5.78;2.95;;;19.10;43.00;;;;;;5168423;28;20041;-77
2021/01/26 05:38:27;;;;;;;4.53;2.90;;;19.10;42.80;;;;;;5185528;28;20025;-76
2021/01/26 05:41:04;;;;;;;5.40;2.63;;;19.10;42.80;;;;;;5162664;28;20030;-77
2021/01/26 05:43:34;;;;;;;4.32;2.40;;;19.20;42.70;;;;;;5170915;28;20490;-76
2021/01/26 05:46:08;;;;;;;3.95;2.47;;;19.20;42.80;;;;;;5152381;28;20038;-77
2021/01/26 05:48:49;;;;;;;5.40;2.28;;;19.20;42.70;;;;;;5168793;28;20032;-77
2021/01/26 05:51:21;;;;;;;3.65;2.17;;;19.30;42.80;;;;;;5184386;28;20037;-76
2021/01/26 05:54:00;;;;;;;4.93;2.50;;;19.20;42.70;;;;;;5168809;28;20025;-76
2021/01/26 05:56:31;;;;;;;3.60;2.28;;;19.30;42.60;;;;;;5168277;28;20405;-78
2021/01/26 05:59:25;;;;;;;4.18;2.28;;;19.30;42.90;;;;;;5181704;28;20037;-77
2021/01/26 06:02:09;;;;;;;5.25;2.22;;;19.30;43.20;;;;;;5172950;28;20030;-75
2021/01/26 06:04:39;;;;;;;3.35;2.15;;;19.30;43.00;;;;;;5200494;28;20034;-76
2021/01/26 06:07:16;;;;;;;2.30;1.88;;;19.30;42.90;;;;;;5200625;28;20180;-75
2021/01/26 06:09:47;;;;;;;6.60;2.35;;;19.30;42.90;;;;;;5190210;28;20080;-76
2021/01/26 06:12:19;;;;;;;2.85;2.10;;;19.30;42.80;;;;;;5181054;28;20049;-76
2021/01/26 06:14:56;;;;;;;2.75;2.00;;;19.30;42.80;;;;;;5179921;28;20057;-76
2021/01/26 06:17:28;;;;;;;2.15;1.85;;;19.30;42.80;;;;;;5180591;28;20026;-76
2021/01/26 06:20:05;;;;;;;3.05;1.80;;;19.30;42.80;;;;;;5182640;28;20032;-76
2021/01/26 06:22:35;;;;;;;2.53;1.98;;;19.30;42.80;;;;;;5167615;28;20053;-76
2021/01/26 06:25:28;;;;;;;3.33;1.90;;;19.30;42.80;;;;;;5149060;28;20030;-77
2021/01/26 06:28:11;;;;;;;3.47;2.00;;;19.30;42.70;;;;;;5178788;28;20052;-76
2021/01/26 06:31:08;;;;;;;2.65;1.88;;;19.30;42.90;;;;;;5147723;28;20036;-76
2021/01/26 06:33:38;;;;;;;2.03;1.75;;;19.40;42.60;;;;;;5198294;28;20038;-76
2021/01/26 06:36:27;;;;;;;4.13;2.10;;;19.40;42.60;;;;;;5168531;28;20026;-75
2021/01/26 06:39:03;;;;;;;5.97;1.88;;;19.40;42.70;;;;;;5194491;28;20034;-75
2021/01/26 06:42:00;;;;;;;2.40;1.85;;;19.30;43.40;;;;;;5163426;28;20510;-75
2021/01/26 06:44:46;;;;;;;;;;;19.30;42.80;;;;;;5161898;28;20056;-76
2021/01/26 06:47:45;;;;;;;2.83;2.00;;;19.30;42.80;;;;;;5215975;28;19914;-74
2021/01/26 06:50:18;;;;;;;2.13;1.65;;;19.30;42.90;;;;;;5181540;28;20030;-77
2021/01/26 06:53:11;;;;;;;2.55;1.70;;;19.30;43.00;;;;;;5189289;28;20033;-77
2021/01/26 06:55:58;;;;;;;2.40;1.90;;;19.30;42.90;;;;;;5171859;28;20034;-76
2021/01/26 06:58:51;;;;;;;1.90;1.60;;;19.40;42.90;;;;;;5177515;28;20026;-76
2021/01/26 07:01:25;;;;;;;2.42;1.90;;;19.40;43.00;;;;;;5194199;28;20045;-76
2021/01/26 07:04:17;;;;;;;4.05;2.33;;;19.30;42.80;;;;;;5216942;28;20404;-76
2021/01/26 07:06:52;;;;;;;3.30;1.80;;;19.30;43.00;;;;;;5164681;28;20069;-78
2021/01/26 07:09:47;;;;;;;2.93;2.13;;;19.40;43.10;;;;;;5191586;28;20543;-78
2021/01/26 07:12:21;;;;;;;5.88;1.75;;;19.30;43.10;;;;;;5205018;28;20045;-76
2021/01/26 07:15:09;;;;;;;4.97;1.90;;;19.50;43.70;;;;;;5185753;28;20435;-76
2021/01/26 07:18:07;;;;;;;7.07;2.20;;;19.60;44.10;;;;;;5154953;28;20429;-77
2021/01/26 07:20:55;;;;;;;12.30;2.10;;;19.60;44.00;;;;;;5165476;28;20026;-77
2021/01/26 07:23:51;;;;;;;6.80;2.30;;;19.70;44.30;;;;;;5176475;28;20120;-77
2021/01/26 07:26:37;;;;;;;3.83;1.83;;;19.70;43.70;;;;;;5181719;28;20060;-77
2021/01/26 07:29:20;;;;;;;29.08;3.33;;;19.60;43.50;;;;;;5180299;28;20276;-76
2021/01/26 07:31:55;;;;;;;28.45;3.10;;;19.80;43.90;;;;;;5162712;28;20056;-77
2021/01/26 07:34:29;;;;;;;14.50;2.57;;;19.90;43.50;;;;;;5149082;28;20026;-76
2021/01/26 07:37:06;;;;;;;14.10;2.30;;;20.00;43.20;;;;;;5168601;28;20531;-77
2021/01/26 07:40:17;;;;;;;8.60;2.10;;;20.20;42.90;;;;;;5167369;28;20504;-76
2021/01/26 07:43:12;;;;;;;7.80;2.70;;;20.30;42.60;;;;;;5181157;28;20045;-77
2021/01/26 07:45:47;;;;;;;7.28;2.25;;;20.30;42.40;;;;;;5161603;28;20042;-77
2021/01/26 07:48:43;;;;;;;10.50;2.25;;;20.40;42.30;;;;;;5182221;28;20033;-76
2021/01/26 07:51:23;;;;;;;9.27;2.20;;;20.40;42.20;;;;;;5205438;28;20034;-77
2021/01/26 07:54:14;;;;;;;6.28;2.28;;;20.40;42.00;;;;;;5165676;28;20022;-78
2021/01/26 07:56:45;;;;;;;5.97;1.95;;;20.50;42.10;;;;;;5171120;28;20050;-75
2021/01/26 07:59:24;;;;;;;12.98;2.28;;;20.50;42.20;;;;;;5178995;28;20449;-75
2021/01/26 08:01:56;;;;;;;11.98;2.10;;;20.70;42.70;;;;;;5170632;28;20479;-75
2021/01/26 08:04:39;;;;;;;7.57;2.17;;;20.80;42.50;;;;;;5183256;28;20037;-75
2021/01/26 08:07:20;;;;;;;4.43;1.88;;;20.90;42.60;;;;;;5165362;28;20038;-75
2021/01/26 08:09:50;;;;;;;5.03;2.00;;;21.10;42.60;;;;;;5175924;28;20655;-75
2021/01/26 08:12:38;;;;;;;8.02;2.08;;;21.20;42.50;;;;;;5186163;23;20030;-63
2021/01/26 08:15:11;;;;;;;13.07;2.10;;;21.30;42.40;;;;;;5138544;28;20050;-65
2021/01/26 08:17:42;;;;;;;5.30;1.90;;;21.50;42.40;;;;;;5124886;28;20504;-64
2021/01/26 08:20:31;;;;;;;6.40;1.83;;;21.60;42.30;;;;;;5119001;28;20034;-63
2021/01/26 08:23:03;;;;;;;10.18;2.22;;;21.70;42.40;;;;;;5127224;28;20035;-63
2021/01/26 08:25:38;;;;;;;8.35;2.08;;;21.80;42.10;;;;;;5125392;28;20094;-62
2021/01/26 08:28:41;;;;;;;6.85;2.33;;;21.90;42.10;;;;;;5132658;28;20090;-63
2021/01/26 08:31:38;;;;;;;10.40;2.00;;;22.00;42.00;;;;;;5140669;28;20502;-62
2021/01/26 08:34:21;;;;;;;5.85;1.90;;;22.10;41.70;;;;;;5140831;28;20031;-62
2021/01/26 08:37:15;;;;;;;6.95;2.15;;;22.20;42.00;;;;;;5141716;28;20035;-61
2021/01/26 08:39:46;;;;;;;3.70;1.90;;;22.30;41.80;;;;;;5136623;28;20043;-62
2021/01/26 08:42:42;;;;;;;8.88;2.08;;;22.30;41.80;;;;;;5128716;28;20493;-62
2021/01/26 08:45:37;;;;;;;6.43;2.28;;;22.40;41.60;;;;;;5139498;28;20033;-61
2021/01/26 08:48:26;;;;;;;5.15;2.00;;;22.40;40.80;;;;;;5147686;28;20472;-61
2021/01/26 08:50:57;;;;;;;5.35;2.13;;;22.30;40.00;;;;;;5140229;28;20504;-61
2021/01/26 08:53:27;;;;;;;4.20;1.95;;;22.20;39.70;;;;;;5141921;28;20033;-61
2021/01/26 08:55:59;;;;;;;5.40;1.85;;;22.20;39.50;;;;;;5140042;28;20027;-63
2021/01/26 08:58:39;;;;;;;14.65;2.28;;;22.20;39.50;;;;;;5140976;28;20046;-61
2021/01/26 09:01:22;;;;;;;6.75;2.17;;;22.20;40.00;;;;;;5125832;28;20537;-63
2021/01/26 09:03:54;;;;;;;7.45;2.15;;;22.30;39.70;;;;;;5135546;28;20039;-63
2021/01/26 09:06:42;;;;;;;6.60;2.30;;;22.50;39.70;;;;;;5155307;28;20461;-62
2021/01/26 09:09:19;;;;;;;6.50;2.15;;;22.60;39.60;;;;;;5141580;28;20307;-63
2021/01/26 09:11:56;;;;;;;4.15;2.15;;;22.70;39.60;;;;;;5140292;28;20488;-63
2021/01/26 09:14:58;;;;;;;4.35;2.17;;;22.70;39.60;;;;;;5137688;28;20028;-63
2021/01/26 09:17:31;;;;;;;4.95;2.08;;;22.80;39.70;;;;;;5139358;28;20391;-63
2021/01/26 09:20:11;;;;;;;4.78;2.20;;;22.80;39.60;;;;;;5128101;28;20507;-64
2021/01/26 09:22:41;;;;;;;2.97;2.20;;;22.90;39.60;;;;;;5125075;28;20035;-61
2021/01/26 09:25:23;;;;;;;4.88;2.10;;;22.90;39.60;;;;;;5126216;28;20030;-61
2021/01/26 09:28:06;;;;;;;6.88;2.08;;;23.00;39.60;;;;;;5142338;28;20026;-61
2021/01/26 09:30:39;;;;;;;7.88;2.38;;;23.00;39.70;;;;;;5138892;28;20039;-62
2021/01/26 09:33:09;;;;;;;10.05;1.90;;;23.00;40.20;;;;;;5143432;28;20031;-62
2021/01/26 09:35:43;;;;;;;12.02;2.35;;;23.10;40.40;;;;;;5144263;28;20046;-62
2021/01/26 09:38:17;;;;;;;6.90;1.90;;;23.10;40.00;;;;;;5124093;29;20042;-63
2021/01/26 09:40:54;;;;;;;6.32;1.83;;;23.20;40.10;;;;;;5151285;28;20496;-62
2021/01/26 09:43:26;;;;;;;8.30;2.08;;;23.20;40.00;;;;;;5139150;28;20542;-62
2021/01/26 09:46:05;;;;;;;7.35;2.00;;;23.20;40.20;;;;;;5143279;28;20038;-63
2021/01/26 09:48:41;;;;;;;4.18;2.15;;;23.20;39.90;;;;;;5159347;28;20389;-62
2021/01/26 09:51:17;;;;;;;6.30;2.10;;;23.20;40.00;;;;;;5126853;28;20531;-62
2021/01/26 09:53:49;;;;;;;4.60;1.73;;;23.20;40.10;;;;;;5144629;28;20106;-60
2021/01/26 09:56:20;;;;;;;7.43;2.10;;;23.20;40.20;;;;;;5138162;28;20090;-64
2021/01/26 09:58:54;;;;;;;3.15;1.80;;;23.20;40.30;;;;;;5136387;28;20035;-63
2021/01/26 10:01:24;;;;;;;13.02;4.82;;;23.20;40.20;;;;;;5136387;28;20046;-62
2021/01/26 10:03:58;;;;;;;13.48;4.22;;;23.10;40.70;;;;;;5148901;28;20506;-60
2021/01/26 10:06:28;;;;;;;7.35;3.85;;;23.00;40.90;;;;;;5131384;28;20102;-59
2021/01/26 10:09:27;;;;;;;19.42;4.40;;;23.10;41.20;;;;;;5148659;28;20487;-62
2021/01/26 10:12:32;;;;;;;9.10;4.20;;;23.10;41.00;;;;;;5144067;28;20074;-62
2021/01/26 10:15:09;;;;;;;8.57;4.30;;;23.10;40.80;;;;;;5154820;28;20065;-60
2021/01/26 10:17:51;;;;;;;7.88;3.75;;;23.10;40.90;;;;;;5144216;28;20045;-59
2021/01/26 10:20:27;;;;;;;9.70;4.40;;;23.10;41.00;;;;;;5126764;28;20496;-61
2021/01/26 10:23:22;;;;;;;10.70;3.83;;;23.20;41.20;;;;;;5141023;28;20026;-60
2021/01/26 10:26:04;;;;;;;8.68;4.03;;;23.10;41.20;;;;;;5122255;28;20042;-58
2021/01/26 10:28:35;;;;;;;6.88;4.05;;;23.10;41.20;;;;;;5141835;28;20154;-60
2021/01/26 10:31:05;;;;;;;10.38;4.15;;;23.10;41.20;;;;;;5148890;28;20064;-60
2021/01/26 10:33:40;;;;;;;13.25;3.88;;;23.10;41.40;;;;;;5138949;28;20024;-59
2021/01/26 10:36:24;;;;;;;9.23;3.97;;;23.20;41.50;;;;;;5138527;28;20043;-59
2021/01/26 10:38:56;;;;;;;7.97;3.63;;;23.10;41.70;;;;;;5137628;28;20030;-59
2021/01/26 10:41:33;;;;;;;5.80;3.95;;;23.10;41.50;;;;;;5133256;28;20077;-61
2021/01/26 10:44:10;;;;;;;8.95;3.58;;;23.20;41.60;;;;;;5137952;28;20035;-59
2021/01/26 10:46:46;;;;;;;7.53;3.65;;;23.20;41.90;;;;;;5144592;28;20050;-59
2021/01/26 10:49:35;;;;;;;9.95;3.35;;;23.20;41.70;;;;;;5141485;28;20030;-62
2021/01/26 10:52:07;;;;;;;8.77;3.50;;;23.20;41.80;;;;;;5125483;28;20054;-58
2021/01/26 10:54:37;;;;;;;9.82;3.22;;;23.10;41.90;;;;;;5125119;28;20060;-64
2021/01/26 10:57:08;;;;;;;14.38;5.38;;;23.20;42.30;;;;;;5140661;28;20041;-62
2021/01/26 10:59:38;;;;;;;11.07;5.40;;;23.10;42.50;;;;;;5142007;28;20023;-61
2021/01/26 11:02:12;;;;;;;16.70;4.30;;;23.10;42.70;;;;;;5142319;28;20468;-63
2021/01/26 11:04:42;;;;;;;16.38;4.63;;;23.20;42.80;;;;;;5138929;28;20031;-62
2021/01/26 11:07:13;;;;;;;9.25;5.75;;;23.70;41.80;;;;;;5140405;28;20030;-61
2021/01/26 11:09:44;;;;;;;8.95;5.45;;;23.40;41.50;;;;;;5123932;28;20433;-64
2021/01/26 11:12:16;;;;;;;10.75;5.25;;;23.20;41.50;;;;;;5125590;28;20043;-62
2021/01/26 11:14:47;;;;;;;6.72;5.07;;;23.10;41.40;;;;;;5125417;28;20030;-59
2021/01/26 11:17:18;;;;;;;15.60;4.80;;;23.00;41.20;;;;;;5140869;28;20837;-63
2021/01/26 11:19:49;;;;;;;7.53;4.97;;;23.00;41.00;;;;;;5141013;28;20110;-62
2021/01/26 11:22:19;;;;;;;12.30;5.50;;;23.00;40.90;;;;;;5136418;28;20031;-64
2021/01/26 11:24:50;;;;;;;5.30;4.60;;;22.90;41.00;;;;;;5131107;28;20415;-62
2021/01/26 11:27:20;;;;;;;5.30;4.50;;;22.90;40.80;;;;;;5150561;28;20389;-64
2021/01/26 11:29:51;;;;;;;10.77;4.68;;;22.80;40.80;;;;;;5136803;28;20031;-63
2021/01/26 11:32:21;;;;;;;5.90;4.32;;;22.80;40.60;;;;;;5141290;28;20042;-61
2021/01/26 11:34:52;;;;;;;10.57;4.70;;;22.70;40.70;;;;;;5140734;28;20046;-61
2021/01/26 11:37:22;;;;;;;17.00;5.60;;;22.60;40.70;;;;;;5140346;28;20054;-61
2021/01/26 11:39:53;;;;;;;18.88;6.63;;;22.60;40.70;;;;;;5140015;28;20046;-62
2021/01/26 11:42:23;;;;;;;21.67;6.75;;;22.50;41.20;;;;;;5142158;28;20038;-63
2021/01/26 11:44:54;;;;;;;20.13;6.85;;;22.40;41.40;;;;;;5142070;28;20037;-61
2021/01/26 11:47:24;;;;;;;21.38;6.70;;;22.30;41.70;;;;;;5140415;28;20477;-60
2021/01/26 11:49:55;;;;;;;25.92;7.10;;;22.20;41.90;;;;;;5156152;28;20043;-60
2021/01/26 11:52:25;;;;;;;21.50;6.70;;;22.20;42.10;;;;;;5141481;28;20038;-60
2021/01/26 11:54:56;;;;;;;20.83;7.13;;;22.10;42.10;;;;;;5140041;28;20035;-61
2021/01/26 11:57:26;;;;;;;20.65;6.93;;;22.20;42.40;;;;;;5134151;28;20487;-61
2021/01/26 11:59:58;;;;;;;23.80;7.03;;;22.30;41.70;;;;;;5148288;28;20031;-63
2021/01/26 12:02:29;;;;;;;22.60;6.82;;;22.40;42.00;;;;;;5137952;28;20026;-60
2021/01/26 12:04:59;;;;;;;14.93;6.45;;;22.40;42.00;;;;;;5153551;28;20038;-61
2021/01/26 12:07:30;;;;;;;17.77;6.63;;;22.30;42.10;;;;;;5156210;28;20027;-63
2021/01/26 12:10:00;;;;;;;15.43;5.68;;;22.40;42.50;;;;;;5138719;28;20057;-63
2021/01/26 12:12:31;;;;;;;14.75;6.30;;;22.40;42.10;;;;;;5141279;28;20034;-62
2021/01/26 12:15:01;;;;;;;15.93;6.13;;;22.40;42.30;;;;;;5145052;28;20105;-61
2021/01/26 12:17:32;;;;;;;14.00;5.70;;;22.40;42.00;;;;;;5132762;28;20456;-60
2021/01/26 12:20:03;;;;;;;14.50;5.28;;;22.50;42.00;;;;;;5135279;28;20025;-59
2021/01/26 12:22:33;;;;;;;18.35;5.90;;;22.50;42.20;;;;;;5136167;28;20126;-61
2021/01/26 12:25:04;;;;;;;13.07;5.30;;;22.50;42.50;;;;;;5133123;28;20443;-57
2021/01/26 12:27:35;;;;;;;10.43;5.22;;;22.50;42.40;;;;;;5039546;28;20104;-60
2021/01/26 12:30:06;;;;;;;13.48;5.13;;;22.50;42.60;;;;;;5094051;28;20027;-61
2021/01/26 12:32:37;;;;;;;15.02;5.70;;;22.50;42.40;;;;;;5120098;29;20039;-63
2021/01/26 12:35:11;;;;;;;9.63;4.88;;;22.50;42.40;;;;;;5140390;28;20097;-61
2021/01/26 12:37:42;;;;;;;13.85;6.13;;;22.50;42.60;;;;;;5150785;28;20027;-61
2021/01/26 12:40:13;;;;;;;9.32;4.65;;;22.50;42.70;;;;;;5123661;28;20054;-62
2021/01/26 12:42:43;;;;;;;9.80;4.55;;;22.50;42.60;;;;;;5150373;28;20035;-63
2021/01/26 12:45:15;;;;;;;12.18;4.90;;;22.50;42.60;;;;;;5144957;28;20026;-61
2021/01/26 12:47:46;;;;;;;10.50;4.78;;;22.60;42.50;;;;;;5141935;28;20027;-61
2021/01/26 12:50:19;;;;;;;13.30;4.60;;;22.60;42.40;;;;;;5143706;28;20042;-61
2021/01/26 12:52:49;;;;;;;11.88;4.50;;;22.50;42.30;;;;;;5151704;28;20054;-63
2021/01/26 12:55:20;;;;;;;9.40;3.92;;;22.50;42.30;;;;;;5143981;28;20050;-60
2021/01/26 12:57:51;;;;;;;9.73;4.32;;;22.60;42.70;;;;;;5143682;28;20495;-62
2021/01/26 13:00:22;;;;;;;12.70;4.13;;;22.60;42.60;;;;;;5141502;28;20122;-64
2021/01/26 13:02:53;;;;;;;8.15;4.00;;;22.60;42.50;;;;;;5123919;28;20027;-61
2021/01/26 13:05:24;;;;;;;14.25;4.35;;;22.70;42.30;;;;;;5143547;28;20118;-62
2021/01/26 13:07:55;;;;;;;7.72;3.90;;;22.80;42.10;;;;;;5138783;28;20126;-60
2021/01/26 13:10:25;;;;;;;13.90;4.43;;;22.80;42.40;;;;;;5137820;28;20524;-61
2021/01/26 13:12:56;;;;;;;8.75;4.05;;;22.70;42.10;;;;;;5149834;28;20046;-61
2021/01/26 13:15:27;;;;;;;8.55;3.50;;;22.70;42.20;;;;;;5140874;28;20369;-59
2021/01/26 13:17:58;;;;;;;25.02;4.00;;;22.70;42.20;;;;;;5143578;28;20045;-60
2021/01/26 13:20:28;;;;;;;6.82;3.40;;;22.70;42.10;;;;;;5140581;28;20027;-60
2021/01/26 13:22:59;;;;;;;10.30;3.92;;;22.70;42.00;;;;;;5142800;28;20031;-63
2021/01/26 13:25:29;;;;;;;9.10;3.30;;;22.80;41.90;;;;;;5154012;28;20121;-61
2021/01/26 13:28:02;;;;;;;8.13;3.42;;;22.80;41.80;;;;;;5151785;28;20026;-59
2021/01/26 13:30:33;;;;;;;6.30;2.97;;;22.80;42.10;;;;;;5140506;28;20065;-59
2021/01/26 13:33:03;;;;;;;4.43;3.00;;;22.80;42.10;;;;;;5156334;28;20023;-57
2021/01/26 13:35:34;;;;;;;8.45;3.20;;;22.80;42.10;;;;;;5139169;28;20129;-61